TUI2240 EDDV-LSZH
Flight info
| Callsign | TUI2240 |
|---|---|
| Flight time | N/A |
| Altitude | 31000 |
| Route | WERRA3G WERRA DCT LAMOP DCT SWALM/N0457F320 DCT OMOGI/N0458F310 T721 LAMGO/N0435F270 T721 RILAX |
| Aircraft | B738/M-SDE2E3FGHIRWXY/LB1 |
Departure
| Time | 2026-05-05 18:50 |
|---|---|
| Airport | Hannover Airport (EDDV) |
Arrival
| Time | N/A |
|---|---|
| Airport | Zürich Airport (LSZH) |
| Time | Latitude | Longitude | Altitude | Speed | Heading |
|---|---|---|---|---|---|
| 2026-05-05 17:57 | 52.45831 | 9.69383 | 179 ft | 0 kts | 28° |
| 2026-05-05 18:06 | 0.00041 | 0.01397 | 8 ft | 0 kts | 360° |
| 2026-05-05 18:07 | 52.45831 | 9.69383 | 179 ft | 0 kts | 28° |
| 2026-05-05 18:07 | 0.00041 | 0.01398 | 6 ft | 0 kts | 27° |
| 2026-05-05 18:07 | 52.45831 | 9.69383 | 173 ft | 0 kts | 28° |
| 2026-05-05 18:41 | 52.45830 | 9.69383 | 179 ft | 1 kts | 28° |
| 2026-05-05 18:41 | 52.45816 | 9.69371 | 179 ft | 2 kts | 24° |
| 2026-05-05 18:41 | 52.45801 | 9.69361 | 179 ft | 2 kts | 17° |
| 2026-05-05 18:41 | 52.45790 | 9.69357 | 179 ft | 2 kts | 9° |
| 2026-05-05 18:42 | 52.45769 | 9.69359 | 179 ft | 2 kts | 326° |
| 2026-05-05 18:42 | 52.45761 | 9.69372 | 180 ft | 2 kts | 294° |
| 2026-05-05 18:42 | 52.45758 | 9.69388 | 180 ft | 0 kts | 277° |
| 2026-05-05 18:45 | 52.45759 | 9.69344 | 179 ft | 12 kts | 272° |
| 2026-05-05 18:45 | 52.45754 | 9.69198 | 178 ft | 13 kts | 245° |
| 2026-05-05 18:45 | 52.45674 | 9.69146 | 180 ft | 13 kts | 184° |
| 2026-05-05 18:46 | 52.45626 | 9.69021 | 180 ft | 16 kts | 272° |
| 2026-05-05 18:46 | 52.45632 | 9.68838 | 182 ft | 16 kts | 273° |
| 2026-05-05 18:46 | 52.45636 | 9.68664 | 182 ft | 15 kts | 271° |
| 2026-05-05 18:46 | 52.45640 | 9.68494 | 181 ft | 14 kts | 272° |
| 2026-05-05 18:47 | 52.45646 | 9.68307 | 182 ft | 21 kts | 272° |
| 2026-05-05 18:47 | 52.45653 | 9.68063 | 181 ft | 21 kts | 273° |
| 2026-05-05 18:47 | 52.45656 | 9.67822 | 180 ft | 21 kts | 262° |
| 2026-05-05 18:47 | 52.45598 | 9.67707 | 181 ft | 0 kts | 198° |
| 2026-05-05 18:48 | 52.45527 | 9.67702 | 181 ft | 18 kts | 166° |
| 2026-05-05 18:49 | 52.45498 | 9.67766 | 180 ft | 2 kts | 93° |
| 2026-05-05 18:49 | 52.45485 | 9.68197 | 178 ft | 77 kts | 92° |
| 2026-05-05 18:49 | 52.45448 | 9.69476 | 188 ft | 144 kts | 92° |
| 2026-05-05 18:49 | 52.45390 | 9.71395 | 356 ft | 187 kts | 93° |
| 2026-05-05 18:50 | 52.45323 | 9.73607 | 1071 ft | 198 kts | 85° |
| 2026-05-05 18:50 | 52.45565 | 9.75809 | 1782 ft | 207 kts | 68° |
| 2026-05-05 18:50 | 52.46349 | 9.77891 | 2305 ft | 221 kts | 49° |
| 2026-05-05 18:50 | 52.47728 | 9.79176 | 2651 ft | 244 kts | 11° |
| 2026-05-05 18:51 | 52.49442 | 9.78779 | 3193 ft | 258 kts | 340° |
| 2026-05-05 18:51 | 52.50977 | 9.77187 | 3711 ft | 264 kts | 310° |
| 2026-05-05 18:51 | 52.51720 | 9.74467 | 4002 ft | 269 kts | 280° |
| 2026-05-05 18:51 | 52.51921 | 9.71387 | 3993 ft | 272 kts | 263° |
| 2026-05-05 18:52 | 52.51183 | 9.68573 | 4364 ft | 272 kts | 225° |
| 2026-05-05 18:52 | 52.49620 | 9.66929 | 5232 ft | 270 kts | 199° |
| 2026-05-05 18:52 | 52.47782 | 9.66377 | 6089 ft | 270 kts | 181° |
| 2026-05-05 18:52 | 52.45903 | 9.66440 | 6822 ft | 273 kts | 178° |
| 2026-05-05 18:53 | 52.43988 | 9.66608 | 7580 ft | 275 kts | 178° |
| 2026-05-05 18:53 | 52.42059 | 9.66789 | 8344 ft | 278 kts | 178° |
| 2026-05-05 18:53 | 52.40114 | 9.66962 | 9109 ft | 281 kts | 179° |
| 2026-05-05 18:53 | 52.38155 | 9.67125 | 9829 ft | 284 kts | 178° |
| 2026-05-05 18:54 | 52.36171 | 9.67133 | 10321 ft | 294 kts | 185° |
| 2026-05-05 18:54 | 52.34043 | 9.66847 | 10499 ft | 316 kts | 187° |
| 2026-05-05 18:54 | 52.31803 | 9.66458 | 10644 ft | 338 kts | 187° |
| 2026-05-05 18:54 | 52.29381 | 9.66027 | 10805 ft | 357 kts | 187° |
| 2026-05-05 18:55 | 52.26863 | 9.65594 | 11223 ft | 367 kts | 187° |
| 2026-05-05 18:55 | 52.24315 | 9.65174 | 11858 ft | 370 kts | 186° |
| 2026-05-05 18:55 | 52.21769 | 9.64768 | 12530 ft | 372 kts | 186° |
| 2026-05-05 18:55 | 52.19160 | 9.64362 | 13135 ft | 377 kts | 186° |
| 2026-05-05 18:56 | 52.16554 | 9.63964 | 13760 ft | 380 kts | 186° |
| 2026-05-05 18:56 | 52.13908 | 9.63563 | 14313 ft | 383 kts | 186° |
| 2026-05-05 18:56 | 52.11244 | 9.63161 | 14885 ft | 386 kts | 186° |
| 2026-05-05 18:56 | 52.08528 | 9.62754 | 15451 ft | 389 kts | 186° |
| 2026-05-05 18:57 | 52.05870 | 9.62356 | 16035 ft | 390 kts | 186° |
| 2026-05-05 18:57 | 52.03150 | 9.61949 | 16609 ft | 393 kts | 186° |
| 2026-05-05 18:57 | 52.00402 | 9.61538 | 17161 ft | 396 kts | 186° |
| 2026-05-05 18:57 | 51.97651 | 9.61128 | 17749 ft | 397 kts | 185° |
| 2026-05-05 18:58 | 51.94921 | 9.60721 | 18282 ft | 399 kts | 186° |
| 2026-05-05 18:58 | 51.92132 | 9.60305 | 18754 ft | 401 kts | 186° |
| 2026-05-05 18:58 | 51.89362 | 9.59894 | 19206 ft | 404 kts | 186° |
| 2026-05-05 18:58 | 51.86540 | 9.59475 | 19670 ft | 406 kts | 186° |
| 2026-05-05 18:59 | 51.83738 | 9.59060 | 20124 ft | 408 kts | 186° |
| 2026-05-05 18:59 | 51.80888 | 9.58639 | 20575 ft | 410 kts | 186° |
| 2026-05-05 18:59 | 51.78021 | 9.58214 | 21028 ft | 412 kts | 186° |
| 2026-05-05 18:59 | 51.75177 | 9.57794 | 21454 ft | 414 kts | 186° |
| 2026-05-05 19:00 | 51.72291 | 9.57369 | 21867 ft | 417 kts | 186° |
| 2026-05-05 19:00 | 51.69420 | 9.56946 | 22263 ft | 419 kts | 186° |
| 2026-05-05 19:00 | 51.66476 | 9.56513 | 22663 ft | 422 kts | 186° |
| 2026-05-05 19:00 | 51.63576 | 9.56087 | 23044 ft | 424 kts | 186° |
| 2026-05-05 19:01 | 51.60619 | 9.55653 | 23431 ft | 426 kts | 185° |
| 2026-05-05 19:01 | 51.57645 | 9.55217 | 23730 ft | 429 kts | 185° |
| 2026-05-05 19:01 | 51.54695 | 9.54786 | 24070 ft | 430 kts | 185° |
| 2026-05-05 19:01 | 51.51698 | 9.54348 | 24418 ft | 431 kts | 185° |
| 2026-05-05 19:02 | 51.48683 | 9.53908 | 24751 ft | 432 kts | 185° |
| 2026-05-05 19:02 | 51.45721 | 9.53476 | 25075 ft | 433 kts | 185° |
| 2026-05-05 19:02 | 51.42692 | 9.53036 | 25374 ft | 435 kts | 185° |
| 2026-05-05 19:02 | 51.39699 | 9.52601 | 25641 ft | 437 kts | 185° |
| 2026-05-05 19:03 | 51.36645 | 9.52158 | 25920 ft | 439 kts | 185° |
| 2026-05-05 19:03 | 51.33581 | 9.51714 | 26201 ft | 441 kts | 185° |
| 2026-05-05 19:03 | 51.30504 | 9.51268 | 26479 ft | 443 kts | 185° |
| 2026-05-05 19:03 | 51.27464 | 9.50668 | 26743 ft | 444 kts | 188° |
| 2026-05-05 19:04 | 51.24408 | 9.49797 | 27092 ft | 444 kts | 190° |
| 2026-05-05 19:04 | 51.21410 | 9.48788 | 27520 ft | 442 kts | 192° |
| 2026-05-05 19:04 | 51.18431 | 9.47734 | 27948 ft | 440 kts | 192° |
| 2026-05-05 19:04 | 51.15424 | 9.46677 | 28309 ft | 439 kts | 191° |
| 2026-05-05 19:05 | 51.12452 | 9.45662 | 28625 ft | 440 kts | 191° |
| 2026-05-05 19:05 | 51.09441 | 9.44664 | 28968 ft | 440 kts | 190° |
| 2026-05-05 19:05 | 51.06440 | 9.43694 | 29356 ft | 438 kts | 190° |
| 2026-05-05 19:05 | 51.03474 | 9.42749 | 29738 ft | 437 kts | 190° |
| 2026-05-05 19:06 | 51.00468 | 9.41801 | 30039 ft | 437 kts | 189° |
| 2026-05-05 19:06 | 50.97507 | 9.40870 | 30320 ft | 437 kts | 189° |
| 2026-05-05 19:06 | 50.94518 | 9.39932 | 30658 ft | 435 kts | 189° |
| 2026-05-05 19:06 | 50.91534 | 9.38996 | 30791 ft | 436 kts | 189° |
| 2026-05-05 19:07 | 50.85583 | 9.37132 | 30883 ft | 439 kts | 189° |
| 2026-05-05 19:07 | 50.82612 | 9.36202 | 31172 ft | 438 kts | 189° |
| 2026-05-05 19:07 | 50.79616 | 9.35264 | 31506 ft | 436 kts | 189° |
| 2026-05-05 19:08 | 50.76678 | 9.34345 | 31855 ft | 433 kts | 189° |
| 2026-05-05 19:08 | 50.73723 | 9.33422 | 32187 ft | 431 kts | 189° |
| 2026-05-05 19:08 | 50.70757 | 9.32497 | 32490 ft | 430 kts | 189° |
| 2026-05-05 19:08 | 50.67860 | 9.31595 | 32791 ft | 429 kts | 189° |
| 2026-05-05 19:09 | 50.64927 | 9.30683 | 33093 ft | 427 kts | 189° |
| 2026-05-05 19:09 | 50.61992 | 9.29772 | 33384 ft | 426 kts | 188° |
| 2026-05-05 19:09 | 50.59079 | 9.28869 | 33668 ft | 425 kts | 188° |
| 2026-05-05 19:09 | 50.56206 | 9.27979 | 33936 ft | 423 kts | 188° |
| 2026-05-05 19:10 | 50.53295 | 9.27079 | 34105 ft | 424 kts | 189° |
| 2026-05-05 19:10 | 50.50425 | 9.26193 | 34221 ft | 426 kts | 189° |
| 2026-05-05 19:10 | 50.47511 | 9.25295 | 34390 ft | 426 kts | 189° |
| 2026-05-05 19:10 | 50.44595 | 9.24397 | 34610 ft | 425 kts | 189° |
| 2026-05-05 19:11 | 50.41712 | 9.23510 | 34778 ft | 424 kts | 189° |
| 2026-05-05 19:11 | 50.38794 | 9.22613 | 34807 ft | 427 kts | 189° |
| 2026-05-05 19:11 | 50.32953 | 9.20821 | 34822 ft | 429 kts | 189° |
| 2026-05-05 19:12 | 50.27121 | 9.19035 | 34825 ft | 427 kts | 189° |
| 2026-05-05 19:12 | 50.21269 | 9.17248 | 34825 ft | 426 kts | 189° |
| 2026-05-05 19:13 | 50.15465 | 9.15480 | 34821 ft | 426 kts | 189° |
| 2026-05-05 19:13 | 50.09649 | 9.13714 | 34826 ft | 426 kts | 189° |
| 2026-05-05 19:14 | 50.03834 | 9.11952 | 34828 ft | 426 kts | 189° |
| 2026-05-05 19:14 | 49.97994 | 9.10187 | 34829 ft | 428 kts | 189° |
| 2026-05-05 19:15 | 49.92114 | 9.08415 | 34829 ft | 429 kts | 189° |
| 2026-05-05 19:15 | 49.86272 | 9.06658 | 34838 ft | 431 kts | 189° |
| 2026-05-05 19:16 | 49.80353 | 9.04882 | 34832 ft | 432 kts | 189° |
| 2026-05-05 19:16 | 49.74433 | 9.03110 | 34831 ft | 434 kts | 189° |
| 2026-05-05 19:17 | 49.68509 | 9.01341 | 34830 ft | 435 kts | 189° |
| 2026-05-05 19:17 | 49.62567 | 8.99571 | 34830 ft | 436 kts | 189° |
| 2026-05-05 19:18 | 49.56605 | 8.97800 | 34832 ft | 437 kts | 189° |
| 2026-05-05 19:18 | 49.50633 | 8.96030 | 34833 ft | 437 kts | 189° |
| 2026-05-05 19:19 | 49.44667 | 8.94266 | 34832 ft | 437 kts | 189° |
| 2026-05-05 19:19 | 49.38658 | 8.92495 | 34828 ft | 437 kts | 189° |
| 2026-05-05 19:20 | 49.32696 | 8.90741 | 34828 ft | 436 kts | 190° |
| 2026-05-05 19:20 | 49.26770 | 8.89002 | 34746 ft | 437 kts | 190° |
| 2026-05-05 19:21 | 49.23726 | 8.88111 | 34206 ft | 441 kts | 189° |
| 2026-05-05 19:21 | 49.20742 | 8.87237 | 33753 ft | 439 kts | 189° |
| 2026-05-05 19:21 | 49.17772 | 8.86369 | 33200 ft | 435 kts | 189° |
| 2026-05-05 19:21 | 49.14793 | 8.85500 | 32672 ft | 435 kts | 189° |
| 2026-05-05 19:22 | 49.11801 | 8.84629 | 32148 ft | 437 kts | 189° |
| 2026-05-05 19:22 | 49.08802 | 8.83757 | 31632 ft | 438 kts | 190° |
| 2026-05-05 19:22 | 49.05841 | 8.82896 | 31137 ft | 439 kts | 190° |
| 2026-05-05 19:22 | 49.02821 | 8.82019 | 30635 ft | 440 kts | 190° |
| 2026-05-05 19:23 | 48.99794 | 8.81141 | 30153 ft | 440 kts | 190° |
| 2026-05-05 19:23 | 48.96774 | 8.80265 | 29625 ft | 442 kts | 190° |
| 2026-05-05 19:23 | 48.93781 | 8.79398 | 29073 ft | 443 kts | 190° |
| 2026-05-05 19:23 | 48.90739 | 8.78519 | 28517 ft | 444 kts | 190° |
| 2026-05-05 19:24 | 48.87685 | 8.77641 | 27975 ft | 445 kts | 190° |
| 2026-05-05 19:24 | 48.84648 | 8.76804 | 27442 ft | 446 kts | 189° |
| 2026-05-05 19:24 | 48.81610 | 8.75994 | 26920 ft | 447 kts | 189° |
| 2026-05-05 19:24 | 48.79525 | 8.75444 | 26576 ft | 448 kts | 189° |
| 2026-05-05 19:25 | 48.76473 | 8.74641 | 26077 ft | 450 kts | 189° |
| 2026-05-05 19:25 | 48.72364 | 8.73555 | 25418 ft | 451 kts | 189° |
| 2026-05-05 19:25 | 48.70269 | 8.72999 | 25099 ft | 452 kts | 189° |
| 2026-05-05 19:25 | 48.67213 | 8.72186 | 24906 ft | 449 kts | 189° |
| 2026-05-05 19:26 | 48.64114 | 8.71361 | 24865 ft | 450 kts | 189° |
| 2026-05-05 19:26 | 48.61027 | 8.70539 | 24842 ft | 447 kts | 189° |
| 2026-05-05 19:26 | 48.57988 | 8.69732 | 24843 ft | 446 kts | 189° |
| 2026-05-05 19:26 | 48.54908 | 8.68914 | 24843 ft | 447 kts | 189° |
| 2026-05-05 19:27 | 48.51876 | 8.68111 | 24843 ft | 447 kts | 189° |
| 2026-05-05 19:27 | 48.48793 | 8.67296 | 24845 ft | 447 kts | 189° |
| 2026-05-05 19:27 | 48.45721 | 8.66488 | 24846 ft | 447 kts | 189° |
| 2026-05-05 19:27 | 48.42661 | 8.65901 | 24847 ft | 447 kts | 185° |
| 2026-05-05 19:28 | 48.39564 | 8.65803 | 24790 ft | 437 kts | 174° |
| 2026-05-05 19:28 | 48.36719 | 8.66962 | 24681 ft | 423 kts | 157° |
| 2026-05-05 19:28 | 48.34102 | 8.68836 | 24515 ft | 410 kts | 156° |
| 2026-05-05 19:28 | 48.31482 | 8.70516 | 24057 ft | 405 kts | 161° |
| 2026-05-05 19:29 | 48.28845 | 8.71826 | 23517 ft | 404 kts | 164° |
| 2026-05-05 19:29 | 48.26129 | 8.72993 | 22907 ft | 402 kts | 165° |
| 2026-05-05 19:29 | 48.23464 | 8.74101 | 22351 ft | 399 kts | 166° |
| 2026-05-05 19:29 | 48.20792 | 8.75229 | 21943 ft | 393 kts | 165° |
| 2026-05-05 19:30 | 48.18203 | 8.76354 | 21874 ft | 379 kts | 165° |
| 2026-05-05 19:30 | 48.15746 | 8.77446 | 21844 ft | 365 kts | 165° |
| 2026-05-05 19:30 | 48.13357 | 8.78522 | 21843 ft | 350 kts | 165° |
| 2026-05-05 19:30 | 48.11072 | 8.79560 | 21848 ft | 336 kts | 165° |
| 2026-05-05 19:31 | 48.08864 | 8.80565 | 21848 ft | 323 kts | 165° |
| 2026-05-05 19:31 | 48.06770 | 8.81517 | 21847 ft | 310 kts | 165° |
| 2026-05-05 19:31 | 48.04734 | 8.82444 | 21850 ft | 297 kts | 165° |
| 2026-05-05 19:31 | 48.02817 | 8.83316 | 21852 ft | 284 kts | 165° |
| 2026-05-05 19:32 | 48.00940 | 8.84168 | 21749 ft | 276 kts | 166° |
| 2026-05-05 19:32 | 47.99118 | 8.84993 | 21428 ft | 275 kts | 166° |
| 2026-05-05 19:32 | 47.97269 | 8.85829 | 21044 ft | 276 kts | 166° |
| 2026-05-05 19:32 | 47.95487 | 8.86636 | 21119 ft | 265 kts | 166° |
| 2026-05-05 19:33 | 47.93687 | 8.87449 | 21190 ft | 276 kts | 166° |
| 2026-05-05 19:33 | 47.91789 | 8.88301 | 21214 ft | 292 kts | 166° |
| 2026-05-05 19:33 | 47.89800 | 8.89195 | 21081 ft | 309 kts | 166° |
| 2026-05-05 19:33 | 47.87692 | 8.90144 | 20474 ft | 322 kts | 166° |
| 2026-05-05 19:34 | 47.85484 | 8.91138 | 19398 ft | 345 kts | 166° |
| 2026-05-05 19:34 | 47.83094 | 8.92213 | 18193 ft | 368 kts | 166° |
| 2026-05-05 19:34 | 47.80619 | 8.93329 | 17290 ft | 378 kts | 166° |
| 2026-05-05 19:35 | 47.75622 | 8.95587 | 16382 ft | 372 kts | 166° |
| 2026-05-05 19:35 | 47.73157 | 8.96697 | 16014 ft | 366 kts | 166° |
| 2026-05-05 19:35 | 47.70745 | 8.97782 | 15906 ft | 354 kts | 166° |
| 2026-05-05 19:35 | 47.68427 | 8.98822 | 15873 ft | 340 kts | 166° |
| 2026-05-05 19:36 | 47.66218 | 8.99811 | 15857 ft | 327 kts | 166° |
| 2026-05-05 19:36 | 47.64086 | 9.00764 | 15873 ft | 321 kts | 167° |
| 2026-05-05 19:36 | 47.61881 | 9.01743 | 15904 ft | 338 kts | 166° |
| 2026-05-05 19:36 | 47.59582 | 9.02765 | 15899 ft | 347 kts | 166° |
| 2026-05-05 19:37 | 47.57281 | 9.03785 | 15889 ft | 348 kts | 168° |
| 2026-05-05 19:37 | 47.54907 | 9.04120 | 15887 ft | 339 kts | 188° |
| 2026-05-05 19:37 | 47.52647 | 9.03309 | 15884 ft | 334 kts | 205° |
| 2026-05-05 19:37 | 47.50689 | 9.01575 | 15886 ft | 331 kts | 221° |
| 2026-05-05 19:38 | 47.49162 | 8.99032 | 15887 ft | 330 kts | 238° |
| 2026-05-05 19:38 | 47.48243 | 8.95902 | 15885 ft | 332 kts | 256° |
| 2026-05-05 19:38 | 47.48039 | 8.92536 | 15892 ft | 335 kts | 273° |
| 2026-05-05 19:38 | 47.48576 | 8.89156 | 15886 ft | 341 kts | 291° |
| 2026-05-05 19:39 | 47.49825 | 8.86184 | 15892 ft | 347 kts | 309° |
| 2026-05-05 19:39 | 47.51649 | 8.83830 | 15887 ft | 354 kts | 325° |